createdAt,value
2022-08-26T00:01:19.207Z,3.17
2022-08-26T00:03:56.459Z,3.55
2022-08-26T00:06:23.837Z,3.47
2022-08-26T00:08:51.429Z,3.72
2022-08-26T00:11:26.714Z,3.60
2022-08-26T00:13:55.479Z,3.75
2022-08-26T00:16:29.537Z,3.78
2022-08-26T00:18:56.568Z,3.65
2022-08-26T00:21:23.452Z,3.45
2022-08-26T00:23:50.379Z,3.97
2022-08-26T00:26:17.769Z,3.80
2022-08-26T00:28:44.690Z,3.40
2022-08-26T00:31:11.629Z,3.63
2022-08-26T00:33:39.795Z,3.42
2022-08-26T00:36:08.641Z,3.67
2022-08-26T00:38:46.900Z,3.50
2022-08-26T00:41:13.911Z,3.60
2022-08-26T00:43:47.405Z,3.88
2022-08-26T00:46:23.692Z,3.65
2022-08-26T00:48:54.161Z,4.00
2022-08-26T00:51:24.853Z,3.80
2022-08-26T00:54:10.739Z,3.83
2022-08-26T00:56:51.202Z,3.25
2022-08-26T00:59:18.774Z,3.47
2022-08-26T01:01:46.225Z,3.53
2022-08-26T01:04:19.265Z,3.28
2022-08-26T01:06:49.672Z,3.28
2022-08-26T01:09:18.043Z,2.88
2022-08-26T01:11:45.355Z,2.72
2022-08-26T01:14:14.470Z,2.80
2022-08-26T01:16:42.387Z,2.80
2022-08-26T01:19:28.608Z,2.83
2022-08-26T01:22:17.554Z,2.80
2022-08-26T01:24:44.474Z,3.00
2022-08-26T01:27:15.845Z,3.30
2022-08-26T01:29:44.554Z,2.80
2022-08-26T01:32:16.293Z,3.05
2022-08-26T01:34:46.315Z,3.20
2022-08-26T01:37:18.384Z,3.60
2022-08-26T01:39:48.826Z,2.93
2022-08-26T01:42:18.214Z,3.40
2022-08-26T01:45:13.758Z,3.80
2022-08-26T01:47:42.987Z,3.10
2022-08-26T01:50:15.732Z,3.55
2022-08-26T01:52:57.609Z,3.60
2022-08-26T01:55:33.149Z,3.50
2022-08-26T01:58:06.995Z,4.25
2022-08-26T02:00:36.253Z,3.53
2022-08-26T02:03:06.604Z,4.00
2022-08-26T02:05:33.792Z,3.53
2022-08-26T02:08:03.201Z,3.50
2022-08-26T02:10:31.366Z,3.70
2022-08-26T02:12:58.209Z,3.40
2022-08-26T02:15:25.116Z,3.90
2022-08-26T02:17:52.669Z,3.53
2022-08-26T02:20:21.661Z,3.50
2022-08-26T02:22:48.502Z,3.10
2022-08-26T02:25:25.753Z,3.70
2022-08-26T02:27:53.246Z,3.20
2022-08-26T02:30:29.775Z,3.47
2022-08-26T02:33:02.365Z,3.50
2022-08-26T02:35:31.025Z,3.50
2022-08-26T02:37:59.549Z,3.47
2022-08-26T02:40:31.201Z,3.70
2022-08-26T02:42:58.751Z,3.70
2022-08-26T02:45:28.129Z,3.38
2022-08-26T02:47:55.606Z,3.50
2022-08-26T02:50:25.326Z,3.35
2022-08-26T02:52:52.819Z,3.20
2022-08-26T02:55:19.767Z,3.40
2022-08-26T02:57:47.223Z,3.40
2022-08-26T03:00:14.740Z,3.33
2022-08-26T03:02:41.639Z,3.72
2022-08-26T03:05:08.945Z,3.50
2022-08-26T03:07:36.428Z,3.60
2022-08-26T03:10:08.561Z,3.65
2022-08-26T03:12:36.508Z,4.10
2022-08-26T03:15:17.562Z,4.10
2022-08-26T03:17:47.801Z,3.50
2022-08-26T03:20:15.558Z,3.78
2022-08-26T03:22:45.004Z,3.70
2022-08-26T03:25:15.222Z,3.28
2022-08-26T03:27:43.114Z,3.75
2022-08-26T03:30:12.010Z,3.30
2022-08-26T03:32:38.972Z,3.78
2022-08-26T03:35:08.526Z,3.70
2022-08-26T03:37:35.486Z,3.70
2022-08-26T03:40:02.639Z,3.35
2022-08-26T03:42:29.580Z,3.38
2022-08-26T03:44:56.497Z,3.53
2022-08-26T03:47:23.372Z,3.30
2022-08-26T03:49:50.234Z,3.28
2022-08-26T03:52:19.056Z,3.45
2022-08-26T03:54:45.962Z,3.35
2022-08-26T03:57:14.084Z,3.30
2022-08-26T03:59:43.867Z,3.72
2022-08-26T04:02:11.696Z,3.78
2022-08-26T04:04:39.547Z,4.22
2022-08-26T04:07:07.175Z,3.72
2022-08-26T04:09:35.134Z,3.95
2022-08-26T04:12:02.749Z,3.72
2022-08-26T04:14:30.339Z,4.10
2022-08-26T04:16:59.320Z,3.47
2022-08-26T04:19:27.496Z,3.40
2022-08-26T04:21:54.680Z,3.63
2022-08-26T04:24:24.636Z,3.40
2022-08-26T04:26:51.848Z,3.30
2022-08-26T04:29:25.858Z,3.55
2022-08-26T04:31:55.310Z,3.30
2022-08-26T04:34:28.700Z,3.72
2022-08-26T04:36:56.931Z,3.58
2022-08-26T04:39:25.326Z,3.15
2022-08-26T04:41:55.163Z,3.72
2022-08-26T04:44:23.680Z,3.75
2022-08-26T04:46:50.866Z,3.63
2022-08-26T04:49:18.435Z,3.10
2022-08-26T04:51:45.240Z,3.55
2022-08-26T04:54:12.013Z,3.67
2022-08-26T04:56:43.067Z,3.38
2022-08-26T04:59:17.063Z,3.80
2022-08-26T05:01:47.158Z,3.17
2022-08-26T05:04:16.235Z,3.30
2022-08-26T05:06:45.941Z,4.85
2022-08-26T05:09:13.615Z,4.43
2022-08-26T05:11:42.641Z,3.65
2022-08-26T05:14:09.485Z,4.05
2022-08-26T05:16:36.515Z,3.60
2022-08-26T05:19:04.326Z,3.50
2022-08-26T05:21:31.877Z,3.35
2022-08-26T05:23:58.843Z,3.50
2022-08-26T05:26:28.487Z,3.30
2022-08-26T05:28:56.882Z,4.10
2022-08-26T05:31:28.981Z,4.03
2022-08-26T05:33:56.558Z,3.35
2022-08-26T05:36:27.007Z,3.60
2022-08-26T05:38:55.489Z,3.70
2022-08-26T05:41:34.459Z,3.83
2022-08-26T05:44:07.007Z,4.18
2022-08-26T05:46:34.747Z,4.30
2022-08-26T05:49:02.839Z,3.60
2022-08-26T05:51:31.029Z,3.63
2022-08-26T05:53:59.381Z,4.28
2022-08-26T05:56:26.248Z,4.53
2022-08-26T05:58:54.043Z,4.40
2022-08-26T06:01:24.301Z,4.18
2022-08-26T06:03:55.881Z,4.45
2022-08-26T06:06:27.533Z,4.40
2022-08-26T06:08:57.934Z,4.10
2022-08-26T06:11:27.172Z,4.43
2022-08-26T06:14:01.196Z,4.25
2022-08-26T06:16:31.732Z,3.78
2022-08-26T06:18:58.636Z,4.07
2022-08-26T06:21:30.593Z,4.35
2022-08-26T06:24:00.405Z,5.10
2022-08-26T06:26:28.046Z,4.38
2022-08-26T06:28:54.865Z,4.55
2022-08-26T06:31:23.286Z,5.20
2022-08-26T06:33:51.348Z,6.00
2022-08-26T06:36:28.927Z,6.20
2022-08-26T06:38:59.164Z,6.30
2022-08-26T06:41:26.196Z,6.45
2022-08-26T06:43:53.389Z,6.43
2022-08-26T06:46:21.763Z,6.40
2022-08-26T06:48:48.871Z,6.95
2022-08-26T06:51:23.586Z,6.97
2022-08-26T06:53:53.028Z,6.90
2022-08-26T06:56:24.219Z,6.75
2022-08-26T06:58:52.167Z,7.32
2022-08-26T07:01:22.221Z,6.88
2022-08-26T07:03:51.783Z,6.47
2022-08-26T07:06:21.475Z,6.95
2022-08-26T07:08:50.849Z,6.60
2022-08-26T07:11:18.320Z,8.38
2022-08-26T07:13:50.395Z,7.95
2022-08-26T07:16:18.868Z,7.35
2022-08-26T07:18:46.739Z,7.30
2022-08-26T07:21:15.364Z,6.50
2022-08-26T07:23:42.282Z,7.00
2022-08-26T07:26:12.473Z,6.68
2022-08-26T07:28:39.308Z,6.75
2022-08-26T07:31:10.391Z,7.28
2022-08-26T07:33:40.022Z,6.40
2022-08-26T07:36:09.339Z,6.47
2022-08-26T07:38:37.720Z,6.20
2022-08-26T07:41:04.948Z,5.55
2022-08-26T07:43:32.598Z,5.72
2022-08-26T07:45:59.431Z,6.82
2022-08-26T07:48:26.452Z,6.70
2022-08-26T07:50:53.572Z,7.07
2022-08-26T07:53:21.553Z,6.60
2022-08-26T07:55:51.471Z,6.00
2022-08-26T07:58:19.812Z,6.07
2022-08-26T08:00:46.892Z,5.47
2022-08-26T08:03:14.360Z,6.05
2022-08-26T08:05:41.628Z,5.28
2022-08-26T08:08:17.323Z,5.55
2022-08-26T08:10:56.337Z,5.82
2022-08-26T08:13:23.718Z,5.70
2022-08-26T08:15:51.330Z,5.30
2022-08-26T08:18:20.330Z,4.80
2022-08-26T08:20:59.035Z,5.20
2022-08-26T08:23:26.237Z,4.97
2022-08-26T08:26:04.938Z,5.30
2022-08-26T08:28:32.006Z,5.20
2022-08-26T08:30:59.261Z,5.28
2022-08-26T08:33:26.448Z,4.70
2022-08-26T08:35:53.221Z,5.15
2022-08-26T08:38:19.977Z,5.57
2022-08-26T08:40:46.759Z,5.07
2022-08-26T08:43:40.562Z,4.90
2022-08-26T08:46:13.461Z,5.32
2022-08-26T08:48:48.099Z,5.03
2022-08-26T08:51:30.254Z,4.73
2022-08-26T08:53:57.375Z,4.88
2022-08-26T08:56:42.065Z,5.20
2022-08-26T08:59:25.614Z,5.43
2022-08-26T09:01:53.945Z,4.82
2022-08-26T09:04:41.988Z,4.53
2022-08-26T09:07:16.028Z,4.85
2022-08-26T09:09:53.081Z,4.88
2022-08-26T09:12:29.466Z,4.32
2022-08-26T09:15:03.187Z,4.55
2022-08-26T09:18:11.911Z,4.80
2022-08-26T09:20:49.189Z,4.93
2022-08-26T09:23:18.228Z,4.85
2022-08-26T09:25:55.919Z,4.78
2022-08-26T09:28:24.980Z,4.20
2022-08-26T09:31:20.224Z,4.63
2022-08-26T09:33:47.344Z,4.30
2022-08-26T09:36:19.443Z,5.00
2022-08-26T09:38:46.527Z,4.60
2022-08-26T09:41:24.692Z,4.72
2022-08-26T09:44:09.674Z,4.03
2022-08-26T09:47:05.786Z,4.80
2022-08-26T09:49:36.857Z,4.60
2022-08-26T09:52:24.775Z,4.70
2022-08-26T09:55:02.394Z,4.30
2022-08-26T09:57:34.710Z,4.87
2022-08-26T10:00:22.338Z,5.20
2022-08-26T10:02:49.745Z,4.70
2022-08-26T10:05:28.956Z,5.28
2022-08-26T10:07:57.328Z,5.18
2022-08-26T10:10:35.376Z,5.30
2022-08-26T10:13:17.717Z,4.50
2022-08-26T10:16:17.338Z,3.90
2022-08-26T10:19:00.301Z,4.60
2022-08-26T10:21:35.777Z,3.97
2022-08-26T10:24:04.552Z,4.47
2022-08-26T10:26:50.321Z,4.55
2022-08-26T10:29:27.718Z,4.97
2022-08-26T10:31:54.616Z,4.93
2022-08-26T10:34:25.707Z,4.00
2022-08-26T10:37:16.255Z,4.60
2022-08-26T10:39:56.870Z,4.22
2022-08-26T10:42:42.827Z,4.43
2022-08-26T10:45:15.557Z,3.88
2022-08-26T10:48:05.252Z,4.93
2022-08-26T10:50:37.279Z,4.17
2022-08-26T10:53:12.912Z,3.95
2022-08-26T10:55:56.862Z,3.75
2022-08-26T10:58:54.842Z,4.15
2022-08-26T11:01:47.004Z,3.80
2022-08-26T11:04:34.972Z,3.60
2022-08-26T11:07:34.493Z,4.00
2022-08-26T11:10:21.563Z,3.83
2022-08-26T11:13:03.023Z,3.97
2022-08-26T11:15:29.677Z,3.47
2022-08-26T11:18:04.803Z,3.70
2022-08-26T11:20:45.359Z,4.22
2022-08-26T11:23:12.749Z,3.67
2022-08-26T11:25:58.387Z,3.83
2022-08-26T11:28:46.460Z,3.78
2022-08-26T11:31:26.094Z,3.47
2022-08-26T11:34:02.558Z,3.92
2022-08-26T11:36:47.674Z,3.55
2022-08-26T11:39:51.387Z,3.67
2022-08-26T11:42:39.403Z,3.72
2022-08-26T11:45:43.275Z,3.53
2022-08-26T11:48:29.261Z,3.50
2022-08-26T11:50:57.717Z,3.67
2022-08-26T11:53:25.294Z,3.63
2022-08-26T11:55:55.603Z,3.10
2022-08-26T11:58:26.269Z,3.47
2022-08-26T12:01:00.062Z,2.78
2022-08-26T12:03:48.698Z,3.35
2022-08-26T12:06:37.621Z,3.30
2022-08-26T12:09:24.140Z,3.55
2022-08-26T12:11:50.916Z,3.30
2022-08-26T12:14:25.160Z,3.53
2022-08-26T12:16:54.772Z,3.78
2022-08-26T12:19:32.894Z,3.38
2022-08-26T12:22:23.198Z,3.10
2022-08-26T12:25:00.159Z,3.30
2022-08-26T12:27:32.429Z,3.60
2022-08-26T12:30:12.346Z,3.60
2022-08-26T12:32:52.866Z,3.50
2022-08-26T12:35:26.192Z,3.22
2022-08-26T12:37:54.543Z,3.13
2022-08-26T12:40:31.077Z,3.17
2022-08-26T12:42:59.932Z,3.15
2022-08-26T12:45:33.372Z,3.10
2022-08-26T12:48:05.983Z,3.40
2022-08-26T12:50:35.989Z,3.90
2022-08-26T12:53:11.655Z,3.30
2022-08-26T12:56:09.196Z,3.38
2022-08-26T12:58:37.269Z,3.17
2022-08-26T13:01:04.164Z,3.55
2022-08-26T13:03:34.033Z,3.13
2022-08-26T13:06:15.593Z,4.35
2022-08-26T13:08:49.410Z,3.42
2022-08-26T13:11:29.853Z,4.05
2022-08-26T13:14:00.631Z,3.60
2022-08-26T13:16:29.531Z,3.20
2022-08-26T13:19:01.139Z,4.03
2022-08-26T13:21:30.206Z,3.90
2022-08-26T13:24:13.782Z,3.90
2022-08-26T13:26:41.954Z,3.70
2022-08-26T13:29:10.526Z,4.13
2022-08-26T13:31:40.303Z,3.05
2022-08-26T13:34:08.605Z,3.15
2022-08-26T13:36:35.584Z,3.70
2022-08-26T13:39:02.563Z,3.50
2022-08-26T13:41:29.906Z,3.93
2022-08-26T13:43:58.868Z,3.65
2022-08-26T13:46:27.565Z,3.40
2022-08-26T13:48:54.907Z,3.85
2022-08-26T13:51:22.308Z,3.20
2022-08-26T13:53:50.068Z,3.80
2022-08-26T13:56:17.849Z,3.92
2022-08-26T13:58:45.108Z,3.80
2022-08-26T14:01:13.541Z,3.65
2022-08-26T14:03:40.474Z,3.60
2022-08-26T14:06:07.640Z,3.30
2022-08-26T14:08:35.113Z,3.60
2022-08-26T14:11:02.052Z,3.88
2022-08-26T14:13:28.970Z,3.13
2022-08-26T14:15:56.160Z,3.85
2022-08-26T14:18:41.658Z,3.37
2022-08-26T14:21:12.833Z,3.53
2022-08-26T14:23:39.960Z,3.42
2022-08-26T14:26:06.924Z,3.50
2022-08-26T14:28:34.944Z,3.95
2022-08-26T14:31:03.059Z,3.30
2022-08-26T14:33:32.863Z,3.25
2022-08-26T14:36:00.776Z,3.95
2022-08-26T14:38:27.617Z,4.25
2022-08-26T14:40:54.356Z,4.00
2022-08-26T14:43:21.228Z,3.47
2022-08-26T14:45:47.961Z,3.45
2022-08-26T14:48:14.749Z,3.55
2022-08-26T14:50:41.538Z,3.60
2022-08-26T14:53:08.373Z,3.03
2022-08-26T14:55:39.180Z,3.53
2022-08-26T14:58:06.259Z,4.20
2022-08-26T15:00:33.422Z,3.47
2022-08-26T15:03:00.487Z,3.45
2022-08-26T15:05:27.539Z,3.17
2022-08-26T15:07:55.204Z,2.90
2022-08-26T15:10:23.488Z,3.67
2022-08-26T15:12:51.304Z,3.38
2022-08-26T15:15:18.913Z,3.30
2022-08-26T15:17:45.796Z,3.40
2022-08-26T15:20:15.586Z,3.47
2022-08-26T15:22:42.408Z,3.42
2022-08-26T15:25:10.459Z,3.45
2022-08-26T15:27:37.311Z,3.38
2022-08-26T15:30:07.145Z,3.53
2022-08-26T15:32:34.104Z,2.97
2022-08-26T15:35:02.039Z,3.17
2022-08-26T15:37:30.408Z,3.47
2022-08-26T15:39:57.318Z,3.22
2022-08-26T15:42:24.228Z,3.50
2022-08-26T15:44:51.004Z,4.03
2022-08-26T15:47:18.272Z,3.13
2022-08-26T15:49:45.086Z,3.00
2022-08-26T15:52:11.840Z,3.20
2022-08-26T15:54:38.687Z,3.22
2022-08-26T15:57:09.399Z,3.20
2022-08-26T15:59:37.762Z,3.03
2022-08-26T16:02:04.745Z,2.72
2022-08-26T16:04:31.625Z,3.20
2022-08-26T16:06:58.437Z,3.22
2022-08-26T16:09:25.296Z,3.27
2022-08-26T16:11:53.045Z,3.08
2022-08-26T16:14:20.547Z,3.45
2022-08-26T16:16:47.803Z,3.40
2022-08-26T16:19:15.202Z,2.92
2022-08-26T16:21:43.399Z,3.10
2022-08-26T16:24:10.861Z,3.10
2022-08-26T16:26:40.583Z,3.45
2022-08-26T16:29:11.137Z,3.10
2022-08-26T16:31:38.519Z,3.13
2022-08-26T16:34:06.882Z,2.90
2022-08-26T16:36:37.911Z,3.15
2022-08-26T16:39:08.683Z,3.45
2022-08-26T16:41:36.177Z,3.42
2022-08-26T16:44:03.422Z,3.42
2022-08-26T16:46:30.274Z,3.27
2022-08-26T16:48:58.565Z,3.10
2022-08-26T16:51:27.813Z,3.47
2022-08-26T16:53:56.046Z,3.25
2022-08-26T16:56:30.614Z,3.10
2022-08-26T16:59:03.463Z,3.37
2022-08-26T17:01:30.447Z,3.83
2022-08-26T17:03:57.251Z,3.40
2022-08-26T17:06:24.173Z,3.20
2022-08-26T17:08:50.965Z,2.95
2022-08-26T17:11:17.987Z,2.80
2022-08-26T17:13:44.868Z,3.55
2022-08-26T17:16:12.871Z,3.00
2022-08-26T17:18:39.740Z,2.92
2022-08-26T17:21:09.579Z,3.05
2022-08-26T17:23:38.650Z,3.10
2022-08-26T17:26:05.670Z,3.35
2022-08-26T17:28:32.689Z,3.03
2022-08-26T17:30:59.836Z,3.38
2022-08-26T17:33:27.691Z,3.33
2022-08-26T17:35:55.637Z,2.90
2022-08-26T17:38:22.949Z,3.22
2022-08-26T17:40:50.443Z,3.22
2022-08-26T17:43:18.373Z,3.85
2022-08-26T17:45:45.306Z,3.50
2022-08-26T17:48:12.883Z,3.47
2022-08-26T17:50:41.445Z,3.40
2022-08-26T17:53:18.461Z,3.60
2022-08-26T17:55:47.258Z,4.20
2022-08-26T17:58:15.474Z,3.83
2022-08-26T18:00:49.989Z,4.10
2022-08-26T18:03:17.460Z,4.70
2022-08-26T18:05:48.464Z,4.88
2022-08-26T18:08:15.369Z,5.07
2022-08-26T18:10:43.480Z,4.60
2022-08-26T18:13:10.812Z,5.13
2022-08-26T18:15:43.038Z,4.05
2022-08-26T18:18:10.040Z,4.00
2022-08-26T18:20:39.032Z,5.68
2022-08-26T18:23:06.140Z,5.63
2022-08-26T18:25:33.023Z,5.07
2022-08-26T18:28:00.589Z,4.40
2022-08-26T18:30:27.594Z,4.90
2022-08-26T18:32:54.445Z,4.82
2022-08-26T18:35:21.268Z,4.53
2022-08-26T18:37:48.557Z,4.40
2022-08-26T18:40:15.672Z,4.07
2022-08-26T18:42:42.546Z,4.05
2022-08-26T18:45:10.389Z,4.28
2022-08-26T18:47:43.406Z,4.55
2022-08-26T18:50:10.859Z,4.43
2022-08-26T18:52:38.753Z,4.75
2022-08-26T18:55:06.409Z,4.65
2022-08-26T18:57:33.390Z,4.93
2022-08-26T19:00:00.221Z,4.75
2022-08-26T19:02:27.795Z,5.00
2022-08-26T19:04:57.500Z,5.10
2022-08-26T19:07:24.400Z,4.80
2022-08-26T19:09:53.842Z,5.22
2022-08-26T19:12:21.132Z,5.40
2022-08-26T19:14:48.220Z,5.27
2022-08-26T19:17:15.643Z,5.30
2022-08-26T19:19:42.740Z,5.28
2022-08-26T19:22:13.213Z,4.82
2022-08-26T19:24:40.347Z,5.18
2022-08-26T19:27:09.747Z,5.07
2022-08-26T19:29:39.795Z,5.22
2022-08-26T19:32:06.974Z,4.70
2022-08-26T19:34:34.319Z,4.93
2022-08-26T19:37:01.238Z,4.60
2022-08-26T19:39:28.388Z,5.10
2022-08-26T19:41:55.667Z,4.97
2022-08-26T19:44:23.608Z,4.97
2022-08-26T19:46:50.737Z,5.72
2022-08-26T19:49:17.849Z,5.18
2022-08-26T19:51:45.073Z,5.20
2022-08-26T19:54:12.252Z,5.10
2022-08-26T19:56:39.332Z,4.95
2022-08-26T19:59:06.631Z,5.30
2022-08-26T20:01:33.486Z,5.50
2022-08-26T20:04:00.637Z,5.47
2022-08-26T20:06:27.926Z,5.05
2022-08-26T20:08:56.177Z,5.60
2022-08-26T20:11:24.226Z,5.15
2022-08-26T20:13:51.374Z,5.00
2022-08-26T20:16:18.813Z,4.87
2022-08-26T20:18:46.469Z,5.53
2022-08-26T20:21:14.415Z,4.70
2022-08-26T20:23:41.618Z,5.10
2022-08-26T20:26:08.868Z,5.00
2022-08-26T20:28:35.862Z,5.13
2022-08-26T20:31:03.630Z,5.13
2022-08-26T20:33:31.750Z,4.72
2022-08-26T20:36:14.470Z,4.75
2022-08-26T20:38:41.872Z,4.60
2022-08-26T20:41:09.249Z,4.50
2022-08-26T20:43:36.175Z,4.82
2022-08-26T20:46:03.287Z,4.93
2022-08-26T20:48:35.300Z,4.60
2022-08-26T20:51:02.388Z,5.05
2022-08-26T20:53:29.836Z,4.93
2022-08-26T20:56:01.882Z,4.30
2022-08-26T20:58:28.994Z,4.60
2022-08-26T21:00:56.440Z,4.20
2022-08-26T21:03:24.145Z,4.50
2022-08-26T21:05:50.944Z,4.23
2022-08-26T21:08:17.834Z,4.35
2022-08-26T21:10:44.719Z,4.50
2022-08-26T21:13:12.859Z,4.38
2022-08-26T21:15:39.974Z,4.20
2022-08-26T21:18:06.892Z,4.30
2022-08-26T21:20:34.413Z,4.28
2022-08-26T21:23:01.484Z,4.95
2022-08-26T21:25:28.415Z,4.88
2022-08-26T21:27:55.304Z,4.20
2022-08-26T21:30:22.751Z,3.97
2022-08-26T21:32:49.864Z,4.30
2022-08-26T21:35:16.875Z,4.15
2022-08-26T21:37:43.774Z,3.97
2022-08-26T21:40:11.309Z,3.97
2022-08-26T21:42:38.253Z,3.93
2022-08-26T21:45:06.146Z,4.18
2022-08-26T21:47:33.116Z,3.97
2022-08-26T21:49:59.975Z,3.92
2022-08-26T21:52:26.890Z,4.10
2022-08-26T21:55:01.650Z,4.30
2022-08-26T21:57:29.265Z,4.15
2022-08-26T21:59:56.310Z,3.78
2022-08-26T22:02:23.745Z,3.90
2022-08-26T22:04:50.920Z,3.22
2022-08-26T22:07:18.762Z,4.00
2022-08-26T22:09:46.044Z,3.63
2022-08-26T22:12:13.506Z,3.40
2022-08-26T22:14:40.364Z,3.65
2022-08-26T22:17:07.307Z,3.47
2022-08-26T22:19:34.284Z,3.53
2022-08-26T22:22:12.926Z,3.50
2022-08-26T22:24:39.712Z,3.63
2022-08-26T22:27:06.911Z,3.40
2022-08-26T22:29:34.319Z,3.72
2022-08-26T22:32:01.783Z,3.80
2022-08-26T22:34:28.815Z,3.30
2022-08-26T22:36:56.018Z,3.50
2022-08-26T22:39:25.132Z,3.30
2022-08-26T22:41:53.850Z,2.97
2022-08-26T22:44:21.077Z,2.93
2022-08-26T22:46:49.730Z,2.80
2022-08-26T22:49:16.882Z,2.95
2022-08-26T22:51:44.700Z,2.55
2022-08-26T22:54:11.850Z,3.15
2022-08-26T22:56:39.666Z,2.93
2022-08-26T22:59:07.031Z,2.53
2022-08-26T23:01:35.855Z,2.90
2022-08-26T23:04:03.424Z,2.97
2022-08-26T23:06:30.310Z,2.65
2022-08-26T23:08:57.144Z,2.70
2022-08-26T23:11:24.054Z,2.75
2022-08-26T23:13:50.956Z,2.60
2022-08-26T23:16:17.901Z,2.70
2022-08-26T23:18:44.778Z,2.50
2022-08-26T23:21:11.631Z,2.60
2022-08-26T23:23:38.592Z,2.83
2022-08-26T23:26:07.382Z,3.00
2022-08-26T23:28:36.169Z,2.30
2022-08-26T23:31:03.141Z,2.60
2022-08-26T23:33:30.022Z,2.55
2022-08-26T23:35:56.902Z,2.50
2022-08-26T23:38:24.131Z,2.20
2022-08-26T23:40:50.971Z,2.65
2022-08-26T23:43:17.811Z,2.50
2022-08-26T23:45:44.692Z,2.30
2022-08-26T23:48:11.685Z,2.58
2022-08-26T23:50:38.585Z,2.17
2022-08-26T23:53:05.453Z,2.10
2022-08-26T23:55:39.371Z,2.40
2022-08-26T23:58:06.938Z,2.20
